• Join FlightAware (Why Join?)
  • Login
  • US Flag 
03:12AM EDT


 

Airport Tracker/Info


-or-


 

Live Flight TrackerFlight Track Log ✈ CTA400 ✈ 06-Jun-2013 ✈ KLBB - KAMA

Flight Track Log - Related Links

Times and Time Zones

All times are in EDT time to prevent confusion due to time zone crossing. See the CTA400 flight status page for this flight to view local times or setup timezone preferences in your user account.

Time Position Orientation Groundspeed Altitude Reporting Facility
EDT Latitude Longitude Course Direction KTS MPH feet Rate Location/Type
10:24AM 33.7150 -101.8433 343° North 130 150 5,100  Level Fort Worth Center
10:25AM 33.7544 -101.8478 355° North 142 163 6,100 960 Climbing Fort Worth Center
10:26AM 33.7964 -101.8472 North 157 181 7,100 840 Climbing Fort Worth Center
10:27AM 33.8419 -101.8522 355° North 157 181 7,900 420 Climbing Fort Worth Center
10:28AM 33.8839 -101.8492 North 173 199 8,000  Climbing Fort Worth Center
10:29AM 33.9303 -101.8367 13° North 191 220 8,000  Level Fort Worth Center
10:30AM 33.9828 -101.8267 North 190 219 8,000  Level Fort Worth Center
10:31AM 34.0356 -101.8094 15° North 196 226 8,000  Level Fort Worth Center
10:32AM 34.0881 -101.7969 11° North 184 212 8,000 -60 Level Fort Worth Center
10:33AM 34.1383 -101.7919 North 189 217 7,900  Descending Fort Worth Center
10:34AM 34.1947 -101.7900 North 184 212 8,000  Climbing Fort Worth Center
10:35AM 34.2450 -101.7825 North 184 212 8,000 -60 Level Fort Worth Center
10:36AM 34.2981 -101.7625 17° North 184 212 7,900  Descending Fort Worth Center
10:37AM 34.3464 -101.7497 12° North 184 212 8,000  Climbing Fort Worth Center
10:38AM 34.4139 -101.7342 11° North 190 219 8,000  Level Albuquerque Center
10:39AM 34.4675 -101.7336 360° North 192 221 8,100  Climbing Albuquerque Center
10:40AM 34.5217 -101.7294 North 193 222 8,100 -60 Level Albuquerque Center
10:41AM 34.5731 -101.7178 11° North 191 220 8,000  Descending Albuquerque Center
10:42AM 34.6247 -101.7097 North 189 217 8,100  Climbing Albuquerque Center
10:43AM 34.6864 -101.7083 North 186 214 8,000 -360 Descending Albuquerque Center
10:44AM 34.7275 -101.7361 331° Northwest 207 238 7,400 -480 Descending Albuquerque Center
10:45AM 34.7897 -101.7678 337° Northwest 199 229 7,100 -540 Descending Albuquerque Center
10:46AM 34.8378 -101.7936 336° Northwest 199 229 6,400 -540 Descending Albuquerque Center
10:47AM 34.8914 -101.8175 340° North 202 232 6,000 -240 Descending Albuquerque Center
10:48AM 34.9414 -101.8400 340° North 198 228 6,000  Level Albuquerque Center
10:49AM 34.9872 -101.8667 335° Northwest 190 219 6,100  Climbing Albuquerque Center
10:50AM 35.0456 -101.8769 352° North 187 215 6,000 -240 Descending Albuquerque Center
10:51AM 35.0911 -101.8692 North 173 199 5,700 -480 Descending Albuquerque Center
10:53AM 35.1183 -101.8425 39° Northeast 141 162 5,100 -300 Descending Albuquerque Center
10:54AM 35.1411 -101.8125 47° Northeast 125 144 5,100 -180 Level Albuquerque Center
10:55AM 35.1633 -101.7853 45° Northeast 119 137 4,800 -540 Descending Albuquerque Center
10:56AM 35.1875 -101.7544 46° Northeast 120 138 4,100 -540 Descending Albuquerque Center
10:57AM 35.2128 -101.7236 45° Northeast 121 139 3,700 -420 Descending Albuquerque Center